Estações Meteorológicas Convencionais MB

Chuí
Data Hora VISIB (KM) Cobertura(OITAVOS) DD Vento(º) Intensidade (NÓS) TEMP DO AR (º) Temp do Ponto de Orvalho(ºC) Pressão (hPa) TEMP MAX (ºC) TEMP MIN (ºC)
30/05/2020 00:00 20/50 30 6 16.00 12.70 1015.00 21.00
29/05/2020 18:00 20/50 4 30 2 21.00 14.80 1015.10
29/05/2020 12:00 20/50 1 350 4 14.00 11.30 1017.50 12.00
28/05/2020 00:00 10/20 360 2 10.00 8.20 1017.10 17.00
27/05/2020 18:00 50 0 20 2 17.00 12.00 1018.40
27/05/2020 12:00 20/50 1 320 4 10.00 8.20 1019.10 6.00
27/05/2020 00:00 10/20 300 5 10.00 8.20 1016.10 16.00
26/05/2020 18:00 20/50 3 260 15 15.00 9.80 1013.60
26/05/2020 12:00 20/50 3 270 10 13.00 9.50 1014.60 10.00
25/05/2020 00:00 4/10 220 14 15.00 13.40 1015.50 16.00
23/05/2020 18:00 4/10 8 210 23 15.00 1013.90
23/05/2020 12:00 4/10 8 190 25 16.00 1014.00 15.00
22/05/2020 18:00 4/10 8 180 24 16.00 14.40 1010.70
22/05/2020 12:00 2/4 8 80 22 17.00 15.40 1011.40 17.00
20/05/2020 00:00 10/20 60 2 17.00 13.80 1014.60 24.00
19/05/2020 18:00 20/50 1 360 6 23.00 17.00 1016.70
19/05/2020 12:00 20/50 3 40 8 19.00 15.90 1020.60 15.00
18/05/2020 00:00 10/20 230 8 17.00 16.80 1019.30 26.00
17/05/2020 18:00 20/50 1 310 8 26.00 15.40 1014.00
17/05/2020 12:00 20/50 1 330 6 17.00 12.00 1014.00 14.00
16/05/2020 00:00 20/50 360 8 15.00 9.80 1015.10 17.00
15/05/2020 18:00 20/50 8 330 4 17.00 10.20 1016.20
15/05/2020 12:00 20/50 8 350 6 12.00 8.40 1020.30 4.00
15/05/2020 00:00 20/50 350 3 10.00 8.20 1021.10 17.00
14/05/2020 18:00 20/50 2 210 10 16.00 10.90 1020.50
14/05/2020 12:00 20/50 4 290 10 12.00 8.40 1021.40 7.00
11/05/2020 00:00 20/50 30 5 19.00 10.60 1010.00 25.00
10/05/2020 18:00 20/50 5 20 9 24.00 18.10 1010.00
10/05/2020 12:00 20/50 6 30 8 17.00 12.00 1014.10 10.00
10/05/2020 00:00 20/50 30 3 15.00 9.80 1015.50 21.00
09/05/2020 18:00 20/50 6 360 5 20.00 13.60 1015.70
09/05/2020 12:00 20/50 4 360 6 14.00 12.30 1019.30 8.00
06/05/2020 00:00 20/50 290 8 13.00 9.50 1011.30 20.00
05/05/2020 18:00 20/50 6 300 8 18.00 13.10 1008.10
05/05/2020 12:00 20/50 7 320 4 15.00 13.40 1009.80 12.00
03/05/2020 00:00 4/10 170 6 17.00 10.20 1022.60 18.00
02/05/2020 18:00 20/50 4 190 10 18.00 13.10 1022.20
02/05/2020 12:00 20/50 2 190 10 18.00 13.10 1021.00 10.00
01/05/2020 00:00 20/50 290 9 15.00 11.60 1019.50 20.00
30/04/2020 18:00 20/50 6 240 13 19.00 14.30 1016.50
30/04/2020 12:00 20/50 0 300 12 15.00 11.60 1015.90 11.00
30/04/2020 00:00 10/20 320 10 16.00 9.00 1015.10 21.00
29/04/2020 18:00 50 0 300 8 21.00 13.00 1013.10
29/04/2020 12:00 50 0 350 8 16.00 14.00 1015.10 14.00
27/04/2020 00:00 10/20 130 13 19.00 15.90 1027.30 22.00
26/04/2020 18:00 10/20 6 150 14 20.00 17.00 1025.90
26/04/2020 12:00 10/20 6 150 14 20.00 18.50 1024.90 19.00
26/04/2020 00:00 4/10 220 10 20.00 18.50 1019.90 30.00
25/04/2020 18:00 10/20 7 220 12 22.00 19.10 1016.10
25/04/2020 12:00 10/20 6 360 11 22.00 17.50 1015.10 17.00
23/04/2020 00:00 10/20 80 4 18.00 14.90 1017.60 19.00
22/04/2020 18:00 4/10 8 100 7 19.00 15.90 1017.90
22/04/2020 12:00 4/10 8 110 9 18.00 14.90 1019.90 18.00
20/04/2020 18:00 20/50 0 120 6 26.00 18.80 1015.30
20/04/2020 12:00 20/50 0 340 7 18.00 16.50 1018.90 16.00
19/04/2020 00:00 10/20 60 4 19.00 17.50 1024.60 22.00
18/04/2020 18:00 20/50 1 130 8 21.00 18.00 1024.30
18/04/2020 12:00 20/50 1 110 2 19.00 15.90 1027.10 12.00
18/04/2020 00:00 10/20 130 8 19.00 14.30 1026.40 21.00
17/04/2020 18:00 20/50 4 180 4 20.00 17.00 1026.20
17/04/2020 12:00 20/50 4 250 6 19.00 17.50 1021.70 16.00
15/04/2020 00:00 4/10 330 16 14.00 10.00 1020.00 19.00
14/04/2020 18:00 10/20 8 290 12 18.00 14.90 1001.50
14/04/2020 00:00 4/10 80 6 19.00 17.50 1007.80 22.00
13/04/2020 18:00 10/20 8 100 8 22.00 19.10 1010.90
13/04/2020 12:00 20/50 8 50 4 21.00 16.50 1015.00 16.00
11/04/2020 00:00 10/20 170 8 18.00 13.10 1019.80 21.00
10/04/2020 18:00 20/50 2 180 7 20.00 15.40 1020.10
10/04/2020 12:00 20/50 4 180 12 19.00 12.50 1020.90 16.00
07/04/2020 18:00 20/50 6 240 16 18.00 9.40 1021.10
07/04/2020 12:00 20/50 2 300 6 15.00 9.80 1021.10 9.00
07/04/2020 00:00 10/20 280 10 14.00 8.60 1018.90 26.00
06/04/2020 18:00 20/50 6 210 16 21.00 14.80 1014.10
06/04/2020 12:00 20/50 4 300 8 22.00 15.90 1011.80 18.00
06/04/2020 00:00 10/20 60 4 20.00 15.40 1012.70 25.00
05/04/2020 18:00 20/50 4 10 6 24.00 16.50 1012.10
02/04/2020 18:00 10/20 4 270 18 19.00 15.90 1008.20
02/04/2020 12:00 10/20 3 300 12 20.00 15.40 1008.90 19.00
02/04/2020 00:00 4/10 60 10 21.00 19.60 1014.70 23.00
01/04/2020 18:00 10/20 8 90 10 22.00 20.60 1014.70
01/04/2020 12:00 10/20 8 70 10 22.00 19.60 1017.80 20.00
30/03/2020 00:00 20/50 180 8 23.00 20.10 1016.90 27.00
29/03/2020 18:00 10/20 6 150 5 26.00 23.30 1015.00
29/03/2020 12:00 4/10 8 100 5 23.00 21.60 1015.70 21.00
29/03/2020 00:00 10/20 30 6 23.00 21.60 1014.90 26.00
28/03/2020 18:00 10/20 7 110 13 25.00 22.20 1013.60
28/03/2020 12:00 10/20 7 60 9 25.00 20.80 1016.20 20.00
25/03/2020 00:00 10/20 60 10 21.00 19.60 1017.10 27.00
24/03/2020 18:00 20/50 2 100 10 25.00 20.80 1016.20
24/03/2020 18:00 20/50 2 60 14 24.00 18.10 1019.80 20.00
24/03/2020 00:00 10/20 90 13 23.00 20.10 1019.40 26.00
23/03/2020 18:00 20/50 1 120 12 25.00 20.80 1019.30
20/03/2020 00:00 10/20 260 5 19.00 17.50 1007.70 26.00
19/03/2020 18:00 10/20 6 340 14 23.00 15.30 1005.60
19/03/2020 12:00 10/20 8 340 12 21.00 18.00 1008.30 19.00
19/03/2020 00:00 4/10 170 8 21.00 19.60 1008.90 23.00
18/03/2020 12:00 20/50 8 90 8 23.00 17.50 1013.20 21.00
16/03/2020 00:00 10/20 210 10 20.00 15.40 1018.00 22.00
15/03/2020 18:00 4/10 8 210 8 21.00 16.50 1017.10
15/03/2020 12:00 10/20 8 210 10 21.00 18.00 1016.70 20.00